Time;durP1;ratioP1;P1;durP2;ratioP2;P2;SDS_P1;SDS_P2;PMS_P1;PMS_P2;Temp;Humidity;BMP_temperature;BMP_pressure;BME280_temperature;BME280_humidity;BME280_pressure;Samples;Min_cycle;Max_cycle;Signal;HPM_P1;HPM_P2
2021/11/20 00:02:06;;;;;;;32.65;13.90;;;6.50;99.90;;;;;;4970710;28;20026;-69
2021/11/20 00:04:32;;;;;;;29.92;13.80;;;6.50;99.90;;;;;;4969478;28;20019;-69
2021/11/20 00:07:00;;;;;;;30.23;13.88;;;6.50;99.90;;;;;;4970614;28;20119;-69
2021/11/20 00:09:28;;;;;;;32.90;13.90;;;6.50;99.90;;;;;;4978587;28;20023;-69
2021/11/20 00:12:15;;;;;;;32.33;14.80;;;6.50;99.90;;;;;;4966194;28;20402;-69
2021/11/20 00:14:41;;;;;;;27.92;13.18;;;6.50;99.90;;;;;;4965149;28;20039;-69
2021/11/20 00:17:07;;;;;;;31.88;13.63;;;6.60;99.90;;;;;;4965380;28;20041;-69
2021/11/20 00:19:33;;;;;;;34.47;15.20;;;6.50;99.90;;;;;;4970000;28;20387;-69
2021/11/20 00:22:11;;;;;;;31.50;13.60;;;6.50;99.90;;;;;;4965267;28;20035;-69
2021/11/20 00:24:46;;;;;;;29.08;12.93;;;6.50;99.90;;;;;;4956975;28;20363;-69
2021/11/20 00:27:17;;;;;;;31.10;13.10;;;6.50;99.90;;;;;;4962823;28;20027;-69
2021/11/20 00:29:58;;;;;;;32.72;13.80;;;6.50;99.90;;;;;;4968419;28;20383;-69
2021/11/20 00:32:27;;;;;;;29.00;13.60;;;6.50;99.90;;;;;;4969860;28;20577;-69
2021/11/20 00:34:56;;;;;;;29.10;13.20;;;6.50;99.90;;;;;;4969391;28;20113;-69
2021/11/20 00:37:21;;;;;;;33.40;13.38;;;6.50;99.90;;;;;;4968581;28;20027;-69
2021/11/20 00:39:47;;;;;;;28.60;13.48;;;6.50;99.90;;;;;;4969210;28;20126;-69
2021/11/20 00:42:13;;;;;;;30.23;14.38;;;6.50;99.90;;;;;;4967990;28;20058;-69
2021/11/20 00:44:39;;;;;;;34.15;14.00;;;6.50;99.90;;;;;;4968725;28;20037;-69
2021/11/20 00:47:05;;;;;;;31.48;13.90;;;6.50;99.90;;;;;;4965096;28;20110;-69
2021/11/20 00:49:31;;;;;;;33.42;13.88;;;6.50;99.90;;;;;;4965589;28;20031;-69
2021/11/20 00:51:57;;;;;;;34.13;14.45;;;6.50;99.90;;;;;;4954544;28;20039;-69
2021/11/20 00:54:23;;;;;;;33.28;14.02;;;6.50;99.90;;;;;;4970146;28;20100;-69
2021/11/20 00:56:49;;;;;;;35.55;14.20;;;6.50;99.90;;;;;;4969358;28;20045;-69
2021/11/20 00:59:15;;;;;;;35.55;14.95;;;6.50;99.90;;;;;;4975844;28;20031;-69
2021/11/20 01:01:46;;;;;;;37.55;14.35;;;6.50;99.90;;;;;;4976311;28;20460;-69
2021/11/20 01:04:12;;;;;;;36.38;14.30;;;6.50;99.90;;;;;;4974469;28;20045;-69
2021/11/20 01:06:40;;;;;;;39.30;15.65;;;6.50;99.90;;;;;;4967354;28;20023;-69
2021/11/20 01:09:08;;;;;;;40.72;15.10;;;6.50;99.90;;;;;;4969859;28;20019;-69
2021/11/20 01:11:46;;;;;;;36.10;15.15;;;6.50;99.90;;;;;;4971667;28;20031;-69
2021/11/20 01:14:16;;;;;;;38.60;14.80;;;6.50;99.90;;;;;;4972235;28;20018;-69
2021/11/20 01:16:44;;;;;;;43.13;14.80;;;6.50;99.90;;;;;;4969082;28;20027;-69
2021/11/20 01:19:11;;;;;;;41.38;15.50;;;6.50;99.90;;;;;;4969301;28;20023;-69
2021/11/20 01:21:37;;;;;;;39.78;14.65;;;6.50;99.90;;;;;;4967465;28;20490;-69
2021/11/20 01:24:06;;;;;;;42.80;15.52;;;6.50;99.90;;;;;;4963687;28;20034;-69
2021/11/20 01:26:31;;;;;;;44.58;15.68;;;6.50;99.90;;;;;;4967680;28;20053;-69
2021/11/20 01:28:58;;;;;;;43.70;15.55;;;6.50;99.90;;;;;;4979949;28;20138;-69
2021/11/20 01:31:28;;;;;;;43.67;16.40;;;6.50;99.90;;;;;;4972756;28;20093;-70
2021/11/20 01:33:54;;;;;;;45.40;16.63;;;6.50;99.90;;;;;;4958867;28;20110;-69
2021/11/20 01:36:25;;;;;;;40.88;16.02;;;6.50;99.90;;;;;;4964967;28;20561;-69
2021/11/20 01:38:53;;;;;;;37.38;14.88;;;6.50;99.90;;;;;;4980604;28;20034;-69
2021/11/20 01:41:21;;;;;;;42.10;15.60;;;6.50;99.90;;;;;;4964067;28;20019;-70
2021/11/20 01:43:49;;;;;;;43.47;16.20;;;6.50;99.90;;;;;;4968079;28;20108;-69
2021/11/20 01:46:20;;;;;;;43.80;16.08;;;6.50;99.90;;;;;;4969090;28;20022;-69
2021/11/20 01:49:08;;;;;;;48.67;15.63;;;6.50;99.90;;;;;;4968233;28;20106;-69
2021/11/20 01:51:38;;;;;;;46.78;16.08;;;6.50;99.90;;;;;;4954584;28;20028;-69
2021/11/20 01:54:44;;;;;;;40.03;15.38;;;6.50;99.90;;;;;;4955286;28;20390;-69
2021/11/20 01:57:30;;;;;;;40.78;15.73;;;6.40;99.90;;;;;;4968961;28;20037;-69
2021/11/20 02:00:08;;;;;;;41.72;15.38;;;6.50;99.90;;;;;;4981412;28;20026;-69
2021/11/20 02:02:59;;;;;;;43.80;15.90;;;6.50;99.90;;;;;;4987984;28;20026;-69
2021/11/20 02:05:49;;;;;;;40.55;14.48;;;6.40;99.90;;;;;;4969356;28;20023;-69
2021/11/20 02:08:21;;;;;;;46.17;14.82;;;6.50;99.90;;;;;;4968516;28;20042;-69
2021/11/20 02:11:00;;;;;;;43.30;15.77;;;6.50;99.90;;;;;;4967302;28;20039;-69
2021/11/20 02:13:29;;;;;;;45.67;15.90;;;6.50;99.90;;;;;;4968434;28;20034;-69
2021/11/20 02:16:06;;;;;;;40.00;15.27;;;6.50;99.90;;;;;;4968429;28;20027;-70
2021/11/20 02:18:35;;;;;;;35.70;14.27;;;6.50;99.90;;;;;;4967789;28;20035;-69
2021/11/20 02:21:13;;;;;;;33.03;14.30;;;6.50;99.90;;;;;;4968024;28;20026;-69
2021/11/20 02:23:38;;;;;;;37.15;14.60;;;6.50;99.90;;;;;;4966871;28;20035;-69
2021/11/20 02:26:04;;;;;;;35.95;13.73;;;6.50;99.90;;;;;;4956719;28;20098;-69
2021/11/20 02:28:31;;;;;;;33.97;14.30;;;6.50;99.90;;;;;;4975250;28;20092;-69
2021/11/20 02:30:58;;;;;;;36.58;13.68;;;6.50;99.90;;;;;;4964199;28;20034;-69
2021/11/20 02:33:31;;;;;;;33.30;13.30;;;6.50;99.90;;;;;;4972680;28;20030;-69
2021/11/20 02:36:01;;;;;;;35.13;13.52;;;6.50;99.90;;;;;;4968331;28;20034;-69
2021/11/20 02:38:35;;;;;;;31.80;12.95;;;6.50;99.90;;;;;;4971407;28;20027;-69
2021/11/20 02:41:01;;;;;;;32.15;12.88;;;6.50;99.90;;;;;;4968129;28;20030;-69
2021/11/20 02:43:31;;;;;;;30.88;12.98;;;6.50;99.90;;;;;;4967167;28;20482;-69
2021/11/20 02:45:57;;;;;;;35.72;12.85;;;6.50;99.90;;;;;;4968529;28;20039;-69
2021/11/20 02:48:24;;;;;;;28.90;12.25;;;6.50;99.90;;;;;;4968229;28;20053;-69
2021/11/20 02:51:15;;;;;;;32.28;12.75;;;6.50;99.90;;;;;;4967722;28;20644;-69
2021/11/20 02:53:47;;;;;;;31.25;12.75;;;6.50;99.90;;;;;;4968246;28;20045;-69
2021/11/20 02:56:20;;;;;;;30.88;12.93;;;6.60;99.90;;;;;;4967215;28;20027;-69
2021/11/20 02:58:46;;;;;;;28.85;12.23;;;6.60;99.90;;;;;;4968231;28;20031;-69
2021/11/20 03:01:18;;;;;;;30.38;11.88;;;6.50;99.90;;;;;;4968028;28;20363;-69
2021/11/20 03:03:44;;;;;;;32.07;13.03;;;6.50;99.90;;;;;;4968607;28;20031;-69
2021/11/20 03:06:10;;;;;;;30.00;13.02;;;6.60;99.90;;;;;;4967934;28;20031;-70
2021/11/20 03:08:36;;;;;;;27.73;11.68;;;6.60;99.90;;;;;;4964643;28;20089;-69
2021/11/20 03:11:02;;;;;;;29.05;11.85;;;6.60;99.90;;;;;;4968045;28;20046;-69
2021/11/20 03:13:29;;;;;;;23.80;10.60;;;6.60;99.90;;;;;;4975057;28;20022;-69
2021/11/20 03:15:54;;;;;;;29.77;11.65;;;6.60;99.90;;;;;;4968413;28;20109;-69
2021/11/20 03:18:20;;;;;;;24.20;11.35;;;6.60;99.90;;;;;;4973559;28;20505;-69
2021/11/20 03:20:46;;;;;;;27.95;12.02;;;6.60;99.90;;;;;;4968902;28;20042;-69
2021/11/20 03:23:26;;;;;;;29.52;11.60;;;6.60;99.90;;;;;;4959796;28;20042;-69
2021/11/20 03:25:51;;;;;;;24.85;11.07;;;6.60;99.90;;;;;;4967536;28;20519;-69
2021/11/20 03:28:17;;;;;;;24.33;10.52;;;6.60;99.90;;;;;;4970189;28;20069;-70
2021/11/20 03:30:43;;;;;;;25.70;11.18;;;6.60;99.90;;;;;;4971743;28;20030;-69
2021/11/20 03:33:09;;;;;;;28.30;11.30;;;6.60;99.90;;;;;;4969869;28;20023;-69
2021/11/20 03:35:35;;;;;;;24.98;10.90;;;6.60;99.90;;;;;;4970555;28;20399;-69
2021/11/20 03:38:01;;;;;;;26.02;11.05;;;6.60;99.90;;;;;;4967917;28;20475;-69
2021/11/20 03:40:28;;;;;;;24.92;11.30;;;6.60;99.90;;;;;;4972477;28;20027;-69
2021/11/20 03:42:54;;;;;;;24.98;11.00;;;6.60;99.90;;;;;;4971277;28;20042;-69
2021/11/20 03:45:21;;;;;;;25.10;11.85;;;6.60;99.90;;;;;;4972492;28;20027;-69
2021/11/20 03:47:47;;;;;;;23.73;10.50;;;6.60;99.90;;;;;;4970156;28;20027;-69
2021/11/20 03:50:14;;;;;;;26.92;11.32;;;6.60;99.90;;;;;;4960642;28;20020;-69
2021/11/20 03:52:41;;;;;;;27.08;12.00;;;6.60;99.90;;;;;;4968430;28;20553;-69
2021/11/20 03:55:10;;;;;;;28.08;11.93;;;6.60;99.90;;;;;;4991811;28;20531;-69
2021/11/20 03:57:36;;;;;;;22.92;10.90;;;6.60;99.90;;;;;;4979463;28;20486;-69
2021/11/20 04:00:06;;;;;;;23.38;11.75;;;6.60;99.90;;;;;;4973889;28;20039;-69
2021/11/20 04:02:31;;;;;;;25.17;12.02;;;6.60;99.90;;;;;;4977534;28;20030;-69
2021/11/20 04:04:57;;;;;;;28.40;11.52;;;6.70;99.90;;;;;;4979918;28;20038;-69
2021/11/20 04:07:22;;;;;;;23.90;11.48;;;6.60;99.90;;;;;;4987714;28;20031;-67
2021/11/20 04:12:21;;;;;;;26.42;12.25;;;6.70;99.90;;;;;;4986511;28;20042;-64
2021/11/20 04:14:46;;;;;;;27.42;11.45;;;6.70;99.90;;;;;;4988912;28;20031;-63
2021/11/20 04:17:12;;;;;;;29.13;12.27;;;6.70;99.90;;;;;;4988893;28;20022;-64
2021/11/20 04:19:37;;;;;;;26.33;11.20;;;6.70;99.90;;;;;;4986765;28;20030;-64
2021/11/20 04:22:04;;;;;;;26.40;12.60;;;6.60;99.90;;;;;;5002541;28;20037;-64
2021/11/20 04:24:30;;;;;;;27.83;12.45;;;6.60;99.90;;;;;;4988013;28;20101;-65
2021/11/20 04:26:55;;;;;;;26.70;12.43;;;6.60;99.90;;;;;;4984454;28;20030;-65
2021/11/20 04:29:21;;;;;;;26.73;12.38;;;6.60;99.90;;;;;;4989420;28;20049;-64
2021/11/20 04:31:48;;;;;;;24.50;11.75;;;6.60;99.90;;;;;;4985743;28;20043;-64
2021/11/20 04:34:14;;;;;;;27.50;12.50;;;6.60;99.90;;;;;;4989316;28;20454;-63
2021/11/20 04:36:40;;;;;;;25.02;11.85;;;6.70;99.90;;;;;;4987669;28;20042;-64
2021/11/20 04:39:06;;;;;;;27.55;12.50;;;6.60;99.90;;;;;;4985299;28;20069;-64
2021/11/20 04:41:32;;;;;;;28.55;11.82;;;6.70;99.90;;;;;;4987271;28;20386;-63
2021/11/20 04:43:57;;;;;;;27.30;13.45;;;6.70;99.90;;;;;;4988574;28;20123;-64
2021/11/20 04:46:24;;;;;;;25.60;11.68;;;6.70;99.90;;;;;;4986350;28;20640;-64
2021/11/20 04:48:51;;;;;;;27.70;12.73;;;6.70;99.90;;;;;;4985034;28;20030;-64
2021/11/20 04:51:17;;;;;;;30.05;13.65;;;6.70;99.90;;;;;;4988906;28;20406;-63
2021/11/20 04:53:45;;;;;;;29.15;13.63;;;6.60;99.90;;;;;;4988254;28;20031;-64
2021/11/20 04:56:12;;;;;;;25.42;12.75;;;6.70;99.90;;;;;;4988373;28;20033;-65
2021/11/20 04:58:40;;;;;;;28.70;12.90;;;6.60;99.90;;;;;;4981026;28;20471;-64
2021/11/20 05:01:07;;;;;;;29.23;12.73;;;6.60;99.90;;;;;;4988364;28;20035;-64
2021/11/20 05:03:33;;;;;;;30.70;13.13;;;6.60;99.90;;;;;;4987635;28;20041;-63
2021/11/20 05:05:59;;;;;;;28.02;13.05;;;6.60;99.90;;;;;;4988614;28;20087;-64
2021/11/20 05:08:25;;;;;;;29.52;14.18;;;6.60;99.90;;;;;;4988065;28;20022;-65
2021/11/20 05:10:52;;;;;;;27.65;12.07;;;6.60;99.90;;;;;;4988099;28;20026;-65
2021/11/20 05:13:20;;;;;;;28.30;12.55;;;6.60;99.90;;;;;;4987111;28;20438;-63
2021/11/20 05:15:48;;;;;;;29.13;13.18;;;6.60;99.90;;;;;;4988677;28;20038;-64
2021/11/20 05:18:15;;;;;;;30.33;13.93;;;6.60;99.90;;;;;;4987511;28;20470;-64
2021/11/20 05:20:41;;;;;;;30.00;13.95;;;6.60;99.90;;;;;;4988772;28;20064;-64
2021/11/20 05:23:08;;;;;;;31.20;14.05;;;6.60;99.90;;;;;;4982937;28;20109;-64
2021/11/20 05:25:34;;;;;;;31.33;13.50;;;6.60;99.90;;;;;;4977387;28;20053;-64
2021/11/20 05:28:00;;;;;;;28.83;13.48;;;6.60;99.90;;;;;;4985824;28;20427;-63
2021/11/20 05:30:38;;;;;;;27.05;13.27;;;6.60;99.90;;;;;;4988618;28;20353;-64
2021/11/20 05:33:17;;;;;;;29.50;13.77;;;6.60;99.90;;;;;;4987582;28;20071;-64
2021/11/20 05:35:43;;;;;;;29.27;13.73;;;6.60;99.90;;;;;;4988289;28;20030;-65
2021/11/20 05:38:09;;;;;;;29.42;13.45;;;6.60;99.90;;;;;;4986422;28;20037;-64
2021/11/20 05:40:37;;;;;;;30.17;13.48;;;6.70;99.90;;;;;;5020347;28;20024;-64
2021/11/20 05:43:05;;;;;;;30.40;13.88;;;6.60;99.90;;;;;;5040409;28;20590;-64
2021/11/20 05:45:34;;;;;;;32.35;13.93;;;6.70;99.90;;;;;;4988324;28;20039;-65
2021/11/20 05:48:00;;;;;;;28.15;14.20;;;6.60;99.90;;;;;;4987552;28;20068;-64
2021/11/20 05:50:27;;;;;;;25.30;13.00;;;6.60;99.90;;;;;;4986988;28;20135;-65
2021/11/20 05:52:54;;;;;;;29.23;13.75;;;6.70;99.90;;;;;;4986582;28;20608;-64
2021/11/20 05:55:23;;;;;;;27.73;13.10;;;6.70;99.90;;;;;;4988015;28;20062;-65
2021/11/20 05:57:48;;;;;;;27.98;13.65;;;6.60;99.90;;;;;;4988026;28;20036;-65
2021/11/20 06:00:18;;;;;;;33.58;14.05;;;6.70;99.90;;;;;;4986306;28;20057;-64
2021/11/20 06:02:44;;;;;;;27.30;12.98;;;6.70;99.90;;;;;;4986653;28;20121;-65
2021/11/20 06:05:09;;;;;;;32.22;13.52;;;6.70;99.90;;;;;;4988236;28;20105;-64
2021/11/20 06:07:35;;;;;;;32.63;12.75;;;6.70;99.90;;;;;;4986954;28;20101;-65
2021/11/20 06:10:01;;;;;;;29.45;12.75;;;6.70;99.90;;;;;;4975983;28;20030;-66
2021/11/20 06:12:27;;;;;;;29.85;13.77;;;6.70;99.90;;;;;;4980878;28;20026;-64
2021/11/20 06:14:53;;;;;;;26.50;12.70;;;6.70;99.90;;;;;;4987170;28;20068;-65
2021/11/20 06:17:19;;;;;;;28.08;13.02;;;6.70;99.90;;;;;;4987528;28;20107;-64
2021/11/20 06:19:44;;;;;;;31.58;13.15;;;6.70;99.90;;;;;;4987529;28;20400;-64
2021/11/20 06:22:10;;;;;;;28.40;13.32;;;6.70;99.90;;;;;;4986221;28;20071;-64
2021/11/20 06:24:36;;;;;;;27.50;12.80;;;6.70;99.90;;;;;;4975299;28;20108;-64
2021/11/20 06:27:02;;;;;;;28.17;13.30;;;6.70;99.90;;;;;;4981202;28;20084;-64
2021/11/20 06:29:28;;;;;;;27.33;12.57;;;6.70;99.90;;;;;;4986655;28;20474;-64
2021/11/20 06:31:53;;;;;;;29.40;13.68;;;6.70;99.90;;;;;;4987935;28;20029;-65
2021/11/20 06:34:20;;;;;;;28.33;13.18;;;6.80;99.90;;;;;;4986873;28;20494;-64
2021/11/20 06:36:46;;;;;;;28.33;12.68;;;6.80;99.90;;;;;;4987050;28;20034;-64
2021/11/20 06:39:12;;;;;;;27.25;13.25;;;6.80;99.90;;;;;;4987537;28;20082;-65
2021/11/20 06:41:38;;;;;;;29.95;14.20;;;6.80;99.90;;;;;;4977443;28;20050;-65
2021/11/20 06:44:04;;;;;;;28.58;13.48;;;6.80;99.90;;;;;;4977276;28;20479;-64
2021/11/20 06:46:30;;;;;;;31.75;14.13;;;6.80;99.90;;;;;;4987522;28;20619;-64
2021/11/20 06:48:56;;;;;;;26.52;13.07;;;6.80;99.90;;;;;;4987292;28;20420;-65
2021/11/20 06:51:22;;;;;;;27.38;13.20;;;6.80;99.90;;;;;;4987054;28;20026;-65
2021/11/20 06:53:48;;;;;;;28.65;12.88;;;6.80;99.90;;;;;;4986448;28;20046;-65
2021/11/20 06:56:25;;;;;;;28.80;13.30;;;6.80;99.90;;;;;;4987332;28;20504;-65
2021/11/20 07:01:18;;;;;;;31.05;14.20;;;6.90;99.90;;;;;;4987735;28;20031;-64
2021/11/20 07:03:57;;;;;;;28.00;13.63;;;6.90;99.90;;;;;;4989366;28;20542;-65
2021/11/20 07:06:31;;;;;;;26.77;13.48;;;6.90;99.90;;;;;;4990724;28;20033;-64
2021/11/20 07:08:57;;;;;;;28.58;12.32;;;6.90;99.90;;;;;;4989379;28;20052;-65
2021/11/20 07:11:24;;;;;;;30.20;13.93;;;6.80;99.90;;;;;;4977456;28;20206;-65
2021/11/20 07:13:50;;;;;;;29.42;13.70;;;6.80;99.90;;;;;;4984465;28;20026;-65
2021/11/20 07:16:17;;;;;;;28.77;13.85;;;6.80;99.90;;;;;;4990131;28;20490;-65
2021/11/20 07:18:44;;;;;;;30.67;14.00;;;6.70;99.90;;;;;;4990429;28;20032;-64
2021/11/20 07:21:10;;;;;;;28.10;13.35;;;6.70;99.90;;;;;;4989888;28;20082;-64
2021/11/20 07:23:36;;;;;;;28.13;13.73;;;6.70;99.90;;;;;;4982623;28;20546;-65
2021/11/20 07:26:03;;;;;;;30.63;14.35;;;6.70;99.90;;;;;;4978278;28;20033;-65
2021/11/20 07:28:29;;;;;;;26.25;13.30;;;6.70;99.90;;;;;;4989734;28;20031;-65
2021/11/20 07:30:55;;;;;;;28.08;14.20;;;6.80;99.90;;;;;;4990304;28;20032;-65
2021/11/20 07:33:20;;;;;;;25.30;12.38;;;6.80;99.90;;;;;;4988995;28;20121;-65
2021/11/20 07:35:53;;;;;;;27.02;12.35;;;6.80;99.90;;;;;;4989993;28;20038;-64
2021/11/20 07:38:32;;;;;;;24.08;12.18;;;6.80;99.90;;;;;;4989184;28;20075;-65
2021/11/20 07:40:57;;;;;;;25.05;12.45;;;6.80;99.90;;;;;;4985350;28;20479;-65
2021/11/20 07:43:23;;;;;;;25.90;13.40;;;6.90;99.90;;;;;;4975376;28;20030;-64
2021/11/20 07:45:50;;;;;;;29.52;14.23;;;6.90;99.90;;;;;;4984201;28;20038;-65
2021/11/20 07:48:19;;;;;;;28.08;13.38;;;6.90;99.90;;;;;;4988481;28;20027;-65
2021/11/20 07:50:46;;;;;;;27.27;13.35;;;6.90;99.90;;;;;;4988486;28;20027;-65
2021/11/20 07:53:14;;;;;;;28.08;13.45;;;7.00;99.90;;;;;;4989199;28;20033;-65
2021/11/20 07:55:40;;;;;;;31.00;14.98;;;7.00;99.90;;;;;;4988874;28;20026;-65
2021/11/20 07:58:06;;;;;;;30.02;14.05;;;7.00;99.90;;;;;;4989779;28;20026;-65
2021/11/20 08:00:34;;;;;;;30.63;14.52;;;7.00;99.90;;;;;;4988944;28;20395;-65
2021/11/20 08:02:59;;;;;;;27.65;14.13;;;7.00;99.90;;;;;;4987605;28;20031;-65
2021/11/20 08:05:28;;;;;;;29.52;14.45;;;7.00;99.90;;;;;;4989130;28;20030;-65
2021/11/20 08:07:54;;;;;;;28.25;13.52;;;7.10;99.90;;;;;;4989406;28;20027;-65
2021/11/20 08:10:22;;;;;;;29.17;14.00;;;7.00;99.90;;;;;;4979863;28;20037;-64
2021/11/20 08:12:48;;;;;;;26.73;13.55;;;7.00;99.90;;;;;;4970647;28;20363;-65
2021/11/20 08:15:14;;;;;;;27.17;14.05;;;7.00;99.90;;;;;;4982211;28;20105;-65
2021/11/20 08:17:41;;;;;;;26.23;13.25;;;7.10;99.90;;;;;;4989508;28;20546;-65
2021/11/20 08:20:09;;;;;;;27.15;13.50;;;7.10;99.90;;;;;;4988623;28;20042;-65
2021/11/20 08:22:35;;;;;;;27.48;13.90;;;7.10;99.90;;;;;;5049258;28;20420;-65
2021/11/20 08:25:00;;;;;;;25.35;13.20;;;7.10;99.90;;;;;;4987489;28;20116;-65
2021/11/20 08:27:27;;;;;;;27.90;14.02;;;7.10;99.90;;;;;;4987689;28;20054;-65
2021/11/20 08:29:52;;;;;;;29.58;14.27;;;7.10;99.90;;;;;;4988433;28;20030;-65
2021/11/20 08:32:18;;;;;;;25.50;13.45;;;7.10;99.90;;;;;;4988498;28;20531;-65
2021/11/20 08:34:45;;;;;;;28.67;14.50;;;7.10;99.90;;;;;;4987702;28;20105;-65
2021/11/20 08:37:11;;;;;;;26.98;14.07;;;7.10;99.90;;;;;;4982573;28;20113;-65
2021/11/20 08:39:37;;;;;;;27.73;13.82;;;7.10;99.90;;;;;;4987828;28;20030;-64
2021/11/20 08:42:03;;;;;;;28.10;13.90;;;7.10;99.90;;;;;;4994101;28;20022;-65
2021/11/20 08:44:29;;;;;;;25.13;13.10;;;7.20;99.90;;;;;;4987491;28;20034;-65
2021/11/20 08:46:55;;;;;;;24.63;13.13;;;7.20;99.90;;;;;;4991061;28;20033;-65
2021/11/20 08:49:21;;;;;;;26.80;13.52;;;7.20;99.90;;;;;;4990345;28;20025;-65
2021/11/20 08:51:52;;;;;;;29.83;14.55;;;7.30;99.90;;;;;;4988034;28;20106;-65
2021/11/20 08:54:18;;;;;;;25.42;13.38;;;7.30;99.90;;;;;;4988493;28;20097;-63
2021/11/20 08:56:47;;;;;;;27.38;13.55;;;7.30;99.90;;;;;;4988259;28;20199;-64
2021/11/20 08:59:14;;;;;;;28.80;13.93;;;7.30;99.90;;;;;;4988768;28;20087;-66
2021/11/20 09:01:45;;;;;;;27.35;14.23;;;7.30;99.90;;;;;;4986702;28;20038;-65
2021/11/20 09:04:32;;;;;;;27.63;13.98;;;7.40;99.90;;;;;;4969813;28;20092;-64
2021/11/20 09:07:05;;;;;;;26.23;14.02;;;7.40;99.90;;;;;;4986019;28;20027;-65
2021/11/20 09:09:38;;;;;;;28.50;14.45;;;7.50;99.90;;;;;;4987624;28;20030;-65
2021/11/20 09:12:17;;;;;;;25.52;14.10;;;7.50;99.90;;;;;;4987453;28;20026;-65
2021/11/20 09:15:05;;;;;;;30.02;14.05;;;7.50;99.90;;;;;;4985575;28;20033;-65
2021/11/20 09:17:30;;;;;;;23.60;13.18;;;7.60;99.90;;;;;;4988835;28;20030;-65
2021/11/20 09:19:56;;;;;;;24.00;13.43;;;7.60;99.90;;;;;;4988643;28;20490;-65
2021/11/20 09:22:22;;;;;;;21.13;12.60;;;7.60;99.90;;;;;;4988521;28;20037;-65
2021/11/20 09:24:49;;;;;;;24.23;12.85;;;7.70;99.90;;;;;;4970925;28;20423;-65
2021/11/20 09:27:15;;;;;;;22.45;12.30;;;7.70;99.90;;;;;;4969107;28;20106;-65
2021/11/20 09:29:41;;;;;;;26.52;13.48;;;7.80;99.90;;;;;;4979755;28;20375;-65
2021/11/20 09:32:08;;;;;;;24.42;13.65;;;7.80;99.90;;;;;;4987228;28;20033;-65
2021/11/20 09:34:34;;;;;;;23.27;13.35;;;7.80;99.90;;;;;;4988014;28;20057;-65
2021/11/20 09:37:00;;;;;;;26.15;13.65;;;7.90;99.90;;;;;;4988621;28;20076;-65
2021/11/20 09:39:32;;;;;;;22.95;12.85;;;7.90;99.90;;;;;;4983656;28;20107;-65
2021/11/20 09:42:31;;;;;;;22.33;13.35;;;7.90;99.90;;;;;;4985994;28;20079;-65
2021/11/20 09:45:02;;;;;;;24.75;12.88;;;8.00;99.90;;;;;;4987769;28;20038;-65
2021/11/20 09:47:30;;;;;;;23.23;13.43;;;8.00;99.90;;;;;;4988530;28;20488;-64
2021/11/20 09:50:10;;;;;;;25.40;13.65;;;8.10;99.90;;;;;;4986880;28;20489;-64
2021/11/20 09:52:36;;;;;;;23.95;13.05;;;8.10;99.90;;;;;;4987491;28;20026;-65
2021/11/20 09:55:03;;;;;;;25.55;12.77;;;8.10;99.90;;;;;;4988439;28;20034;-65
2021/11/20 09:57:41;;;;;;;20.75;12.43;;;8.20;99.90;;;;;;4988442;28;20033;-65
2021/11/20 10:00:39;;;;;;;21.42;12.82;;;8.20;99.90;;;;;;4986468;28;20492;-65
2021/11/20 10:03:09;;;;;;;24.67;12.25;;;8.30;99.90;;;;;;4987282;28;20034;-65
2021/11/20 10:05:44;;;;;;;23.17;12.75;;;8.30;99.90;;;;;;4988432;28;20029;-65
2021/11/20 10:08:24;;;;;;;23.17;12.27;;;8.40;99.90;;;;;;4986867;28;20427;-65
2021/11/20 10:13:24;;;;;;;22.50;12.35;;;8.40;99.90;;;;;;5004974;28;20045;-71
2021/11/20 10:16:12;;;;;;;23.30;12.15;;;8.40;99.90;;;;;;5081844;28;20065;-71
2021/11/20 10:19:04;;;;;;;19.70;11.40;;;8.50;99.90;;;;;;5110774;28;20467;-71
2021/11/20 10:21:35;;;;;;;21.65;12.38;;;8.50;99.90;;;;;;5033192;28;20022;-72
2021/11/20 10:24:14;;;;;;;24.67;13.40;;;8.50;99.90;;;;;;5004680;28;20030;-69
2021/11/20 10:26:43;;;;;;;20.65;11.25;;;8.50;99.90;;;;;;5003603;28;20125;-69
2021/11/20 10:29:45;;;;;;;20.13;10.70;;;8.60;99.90;;;;;;5005699;28;20117;-69
2021/11/20 10:32:33;;;;;;;18.67;11.27;;;8.50;99.90;;;;;;4987931;28;20037;-73
2021/11/20 10:35:04;;;;;;;14.38;9.25;;;8.60;99.90;;;;;;4997053;28;20366;-69
2021/11/20 10:37:51;;;;;;;14.67;8.90;;;8.50;99.90;;;;;;5008219;28;20033;-69
2021/11/20 10:40:58;;;;;;;13.88;8.82;;;8.50;99.90;;;;;;5009519;28;20034;-70
2021/11/20 10:43:26;;;;;;;13.45;8.63;;;8.50;99.90;;;;;;4993584;28;20038;-69
2021/11/20 10:46:29;;;;;;;13.02;9.20;;;8.50;99.90;;;;;;5006458;28;20026;-72
2021/11/20 10:49:14;;;;;;;10.23;7.82;;;8.60;99.90;;;;;;5004971;28;20041;-69
2021/11/20 10:51:54;;;;;;;11.23;7.72;;;8.50;99.90;;;;;;5011001;28;20074;-70
2021/11/20 10:54:47;;;;;;;13.52;8.70;;;8.50;99.90;;;;;;5008990;28;20048;-72
2021/11/20 10:57:50;;;;;;;22.48;14.85;;;8.50;99.90;;;;;;4992713;28;20358;-69
2021/11/20 11:00:36;;;;;;;15.27;9.55;;;8.60;99.90;;;;;;5009828;28;20030;-71
2021/11/20 11:03:23;;;;;;;12.43;9.07;;;8.60;99.90;;;;;;5004984;28;20067;-72
2021/11/20 11:05:51;;;;;;;12.80;8.75;;;8.60;99.90;;;;;;5010377;28;20109;-68
2021/11/20 11:08:38;;;;;;;12.15;8.00;;;8.60;99.90;;;;;;5019477;28;20389;-68
2021/11/20 11:11:25;;;;;;;12.07;8.40;;;8.60;99.90;;;;;;5009656;28;20041;-69
2021/11/20 11:14:12;;;;;;;14.35;9.52;;;8.70;99.90;;;;;;4995109;28;20108;-70
2021/11/20 11:16:53;;;;;;;15.60;8.18;;;8.70;99.90;;;;;;5005515;28;20037;-67
2021/11/20 11:19:40;;;;;;;9.88;7.45;;;8.70;99.90;;;;;;4997919;28;20034;-69
2021/11/20 11:22:48;;;;;;;8.98;6.88;;;8.70;99.90;;;;;;5045787;28;20034;-68
2021/11/20 11:25:30;;;;;;;10.13;6.78;;;8.70;99.90;;;;;;5008505;28;20034;-72
2021/11/20 11:28:13;;;;;;;11.10;8.50;;;8.70;99.90;;;;;;5012006;28;20030;-70
2021/11/20 11:30:50;;;;;;;9.27;7.00;;;8.80;99.90;;;;;;5000334;28;20512;-68
2021/11/20 11:33:17;;;;;;;9.55;7.45;;;8.80;99.90;;;;;;5001870;28;20029;-69
2021/11/20 11:35:45;;;;;;;12.30;7.90;;;8.80;99.90;;;;;;5008845;28;20034;-71
2021/11/20 11:38:21;;;;;;;10.98;7.13;;;8.90;99.90;;;;;;5008816;28;20033;-73
2021/11/20 11:41:18;;;;;;;11.75;7.18;;;8.90;99.90;;;;;;5008978;28;20446;-70
2021/11/20 11:43:50;;;;;;;9.98;7.18;;;8.90;99.90;;;;;;4993797;28;20037;-70
2021/11/20 11:46:32;;;;;;;9.95;7.82;;;8.90;99.90;;;;;;4991685;28;20026;-69
2021/11/20 11:49:21;;;;;;;10.35;7.63;;;8.90;99.90;;;;;;4989371;28;20035;-69
2021/11/20 11:52:13;;;;;;;12.15;7.70;;;8.90;99.90;;;;;;5004824;28;20071;-69
2021/11/20 11:54:46;;;;;;;26.55;14.90;;;8.90;99.90;;;;;;4995196;28;20031;-69
2021/11/20 11:57:11;;;;;;;11.93;8.13;;;8.80;99.90;;;;;;4990498;28;20117;-72
2021/11/20 12:00:16;;;;;;;12.15;8.43;;;8.80;99.90;;;;;;5008104;28;20058;-76
2021/11/20 12:02:51;;;;;;;13.43;8.18;;;8.80;99.90;;;;;;5003127;28;20106;-73
2021/11/20 12:05:32;;;;;;;10.65;8.13;;;8.80;99.90;;;;;;5002183;28;20597;-71
2021/11/20 12:08:32;;;;;;;12.13;8.30;;;8.80;99.90;;;;;;5005196;28;20097;-72
2021/11/20 12:11:02;;;;;;;11.75;8.52;;;8.80;99.90;;;;;;5002069;28;20029;-72
2021/11/20 12:13:32;;;;;;;11.38;8.27;;;8.80;99.90;;;;;;4991744;28;20037;-71
2021/11/20 12:16:06;;;;;;;19.98;11.70;;;8.80;99.90;;;;;;5057996;28;20021;-72
2021/11/20 12:18:40;;;;;;;14.95;8.45;;;8.80;99.90;;;;;;5050099;28;20140;-71
2021/11/20 12:21:18;;;;;;;16.15;10.00;;;8.80;99.90;;;;;;5006284;28;20034;-72
2021/11/20 12:24:10;;;;;;;14.45;9.82;;;8.80;99.90;;;;;;5004211;28;20174;-72
2021/11/20 12:26:57;;;;;;;13.68;9.63;;;8.80;99.90;;;;;;5022926;28;20041;-74
2021/11/20 12:29:55;;;;;;;10.13;7.93;;;8.80;99.90;;;;;;4996117;28;20497;-72
2021/11/20 12:32:37;;;;;;;12.50;9.00;;;8.80;99.90;;;;;;4988617;28;20144;-71
2021/11/20 12:35:10;;;;;;;15.35;8.82;;;8.80;99.90;;;;;;4994895;28;20037;-73
2021/11/20 12:37:49;;;;;;;11.07;7.88;;;8.80;99.90;;;;;;5009124;28;20022;-71
2021/11/20 12:40:20;;;;;;;12.82;8.90;;;8.80;99.90;;;;;;5009408;28;20500;-71
2021/11/20 12:43:08;;;;;;;18.98;11.50;;;8.80;99.90;;;;;;5007298;28;20041;-71
2021/11/20 12:45:37;;;;;;;12.52;9.20;;;8.80;99.90;;;;;;5009424;28;20033;-71
2021/11/20 12:48:08;;;;;;;13.75;9.55;;;8.70;99.90;;;;;;5009131;28;20030;-74
2021/11/20 12:50:56;;;;;;;17.52;9.05;;;8.80;99.90;;;;;;5009480;28;20057;-71
2021/11/20 12:53:24;;;;;;;10.60;7.88;;;8.80;99.90;;;;;;4990247;28;20069;-72
2021/11/20 12:56:17;;;;;;;12.05;8.32;;;8.80;99.90;;;;;;4989283;28;20035;-71
2021/11/20 12:59:13;;;;;;;13.07;9.48;;;8.80;99.90;;;;;;4987876;28;20042;-72
2021/11/20 13:01:47;;;;;;;13.25;8.90;;;8.80;99.90;;;;;;5073908;28;20050;-74
2021/11/20 13:04:23;;;;;;;11.95;8.52;;;8.80;99.90;;;;;;5013306;28;20061;-75
2021/11/20 13:07:12;;;;;;;14.90;9.23;;;8.80;99.90;;;;;;5009007;28;20022;-71
2021/11/20 13:09:59;;;;;;;12.27;8.35;;;8.80;99.90;;;;;;5008817;28;20134;-71